Weather at Nemiskam Airport

Public forecast

Using degrees Celsius for public forecast. Weather courtesy of forecast.io.

Closest aviation weather report (METAR) to Nemiskam Airport

Closest report is Medicine Hat Regional Airport, 42.2 nm (78.1 km) NE.

2024/07/21 04:00 (retrieved 50 minutes ago)

CYXH 210400Z AUTO 09005KT 7SM CLR 26/13 A3020 RMK SLP216 DENSITY ALT 3900FT

Closest aviation forecast (TAF) to Nemiskam Airport

Forecast is more than 12 hours old.

Closest forecast is Malmstrom Air Force Base, 117.5 nm (217.6 km) S.

2024/07/19 13:57 (retrieved 2 days ago)

TAF KGFA 191300Z 1913/2019 VRB06KT 9999 SKC QNH3017INS BECMG 1920/1921 35009KT 9999 FEW120 QNH3016INS TX33/1922Z TN16/2012Z